Time;durP1;ratioP1;P1;durP2;ratioP2;P2;SDS_P1;SDS_P2;PMS_P1;PMS_P2;Temp;Humidity;BMP_temperature;BMP_pressure;BME280_temperature;BME280_humidity;BME280_pressure;Samples;Min_cycle;Max_cycle;Signal;HPM_P1;HPM_P2
2021/12/01 00:00:46;;;;;;;;;14.67;13.67;;;;;;;;5030665;28;46992;-86
2021/12/01 00:03:11;;;;;;;;;14.25;13.75;;;;;;;;5030584;28;45462;-85
2021/12/01 00:05:36;;;;;;;;;16.00;14.33;;;;;;;;5049090;28;45571;-87
2021/12/01 00:08:03;;;;;;;;;15.75;14.50;;;;;;;;5030719;28;45877;-84
2021/12/01 00:10:30;;;;;;;;;18.25;15.50;;;;;;;;5031379;28;47129;-84
2021/12/01 00:12:55;;;;;;;;;14.25;14.25;;;;;;;;5030605;28;46538;-85
2021/12/01 00:15:20;;;;;;;;;20.67;19.33;;;;;;;;5031048;28;45494;-85
2021/12/01 00:17:46;;;;;;;;;15.25;14.25;;;;;;;;5030866;28;45663;-85
2021/12/01 00:20:13;;;;;;;;;16.25;15.00;;;;;;;;5050741;28;45525;-85
2021/12/01 00:22:39;;;;;;;;;13.25;11.25;;;;;;;;5029871;28;45530;-84
2021/12/01 00:25:05;;;;;;;;;15.00;14.50;;;;;;;;5031048;28;45425;-84
2021/12/01 00:27:30;;;;;;;;;15.25;14.00;;;;;;;;5030767;28;45689;-85
2021/12/01 00:29:57;;;;;;;;;13.50;10.25;;;;;;;;5029983;28;46976;-84
2021/12/01 00:32:22;;;;;;;;;19.75;18.50;;;;;;;;5049067;28;45458;-85
2021/12/01 00:34:47;;;;;;;;;15.50;14.00;;;;;;;;5030152;28;45563;-84
2021/12/01 00:37:12;;;;;;;;;14.00;14.00;;;;;;;;5030681;28;45632;-85
2021/12/01 00:39:38;;;;;;;;;14.33;12.33;;;;;;;;5031267;28;47447;-85
2021/12/01 00:42:03;;;;;;;;;12.00;10.50;;;;;;;;5031002;28;45381;-85
2021/12/01 00:44:30;;;;;;;;;12.75;12.75;;;;;;;;5030420;28;45534;-85
2021/12/01 00:47:04;;;;;;;;;10.75;9.75;;;;;;;;5049226;28;45526;-85
2021/12/01 00:49:34;;;;;;;;;11.00;11.00;;;;;;;;5030600;28;47855;-85
2021/12/01 00:51:59;;;;;;;;;15.50;12.75;;;;;;;;5029930;28;45710;-84
2021/12/01 00:54:25;;;;;;;;;10.33;10.00;;;;;;;;5030002;28;45623;-85
2021/12/01 00:56:50;;;;;;;;;14.00;13.67;;;;;;;;5030776;28;45558;-85
2021/12/01 00:59:15;;;;;;;;;10.00;10.00;;;;;;;;5049186;28;46658;-85
2021/12/01 01:01:40;;;;;;;;;11.50;10.00;;;;;;;;5030329;28;45908;-84
2021/12/01 01:04:06;;;;;;;;;13.67;13.00;;;;;;;;5031230;28;45639;-85
2021/12/01 01:06:31;;;;;;;;;10.00;9.33;;;;;;;;5048145;28;45676;-85
2021/12/01 01:08:56;;;;;;;;;13.67;11.67;;;;;;;;5030240;28;48547;-84
2021/12/01 01:16:52;;;;;;;;;10.75;10.00;;;;;;;;5048537;28;45611;-84
2021/12/01 01:19:21;;;;;;;;;14.00;13.25;;;;;;;;5049605;28;46187;-85
2021/12/01 01:21:49;;;;;;;;;11.75;9.25;;;;;;;;5030564;28;45987;-85
2021/12/01 01:24:15;;;;;;;;;16.25;15.00;;;;;;;;5048564;28;45628;-85
2021/12/01 01:26:40;;;;;;;;;10.50;10.00;;;;;;;;5051371;28;45501;-86
2021/12/01 01:29:06;;;;;;;;;14.50;12.25;;;;;;;;5052394;28;45966;-86
2021/12/01 01:31:32;;;;;;;;;16.25;14.25;;;;;;;;5052238;28;45412;-86
2021/12/01 01:33:57;;;;;;;;;13.75;13.00;;;;;;;;5033766;28;45418;-86
2021/12/01 01:36:23;;;;;;;;;13.50;12.25;;;;;;;;5051600;28;45399;-85
2021/12/01 01:38:49;;;;;;;;;13.00;11.75;;;;;;;;5033148;28;47129;-84
2021/12/01 01:41:15;;;;;;;;;12.00;11.75;;;;;;;;5052443;28;45887;-86
2021/12/01 01:43:41;;;;;;;;;13.00;12.75;;;;;;;;5033605;28;45437;-85
2021/12/01 01:46:07;;;;;;;;;15.50;14.25;;;;;;;;5033855;28;45184;-85
2021/12/01 01:48:33;;;;;;;;;14.00;14.00;;;;;;;;5051514;28;45996;-85
2021/12/01 01:51:00;;;;;;;;;13.25;13.25;;;;;;;;5032787;28;45912;-85
2021/12/01 01:53:26;;;;;;;;;14.75;14.75;;;;;;;;5033090;28;45469;-85
2021/12/01 01:55:53;;;;;;;;;16.00;14.75;;;;;;;;5033044;28;45677;-85
2021/12/01 01:58:21;;;;;;;;;11.75;10.50;;;;;;;;5033589;28;47329;-86
2021/12/01 02:00:54;;;;;;;;;17.50;15.75;;;;;;;;5031151;28;45483;-85
2021/12/01 02:03:21;;;;;;;;;20.25;15.25;;;;;;;;5013876;28;45550;-85
2021/12/01 02:05:46;;;;;;;;;15.00;14.50;;;;;;;;5012082;28;45603;-86
2021/12/01 02:08:18;;;;;;;;;12.75;12.00;;;;;;;;5013334;28;47230;-86
2021/12/01 02:10:46;;;;;;;;;13.00;12.25;;;;;;;;5014467;28;45884;-85
2021/12/01 02:13:12;;;;;;;;;15.25;14.00;;;;;;;;5014291;28;45743;-86
2021/12/01 02:15:37;;;;;;;;;15.75;14.25;;;;;;;;5031338;28;45440;-86
2021/12/01 02:18:02;;;;;;;;;14.00;13.33;;;;;;;;5013249;28;48286;-84
2021/12/01 02:20:27;;;;;;;;;14.75;12.75;;;;;;;;5030981;28;45584;-87
2021/12/01 02:22:53;;;;;;;;;16.67;14.67;;;;;;;;5031279;28;45537;-86
2021/12/01 02:25:22;;;;;;;;;15.67;15.00;;;;;;;;5013299;28;45644;-86
2021/12/01 02:27:48;;;;;;;;;11.50;11.25;;;;;;;;5030789;28;46633;-85
2021/12/01 02:30:13;;;;;;;;;15.00;13.75;;;;;;;;5013807;28;45559;-86
2021/12/01 02:32:38;;;;;;;;;15.00;15.00;;;;;;;;5013069;28;45511;-86
2021/12/01 02:35:04;;;;;;;;;16.33;15.67;;;;;;;;5012285;28;45483;-86
2021/12/01 02:37:29;;;;;;;;;15.00;14.00;;;;;;;;5012215;28;48212;-85
2021/12/01 02:39:55;;;;;;;;;17.75;14.75;;;;;;;;5009408;28;45361;-86
2021/12/01 02:42:20;;;;;;;;;13.25;11.75;;;;;;;;5011117;28;45755;-87
2021/12/01 02:44:46;;;;;;;;;14.50;13.00;;;;;;;;5016167;28;45408;-85
2021/12/01 02:47:12;;;;;;;;;13.50;11.25;;;;;;;;5012802;28;47026;-84
2021/12/01 02:49:37;;;;;;;;;12.00;11.75;;;;;;;;5027961;28;45617;-84
2021/12/01 02:52:02;;;;;;;;;9.00;9.00;;;;;;;;5030505;28;45513;-85
2021/12/01 02:54:29;;;;;;;;;10.00;9.75;;;;;;;;5030584;28;45430;-85
2021/12/01 02:56:54;;;;;;;;;8.50;8.50;;;;;;;;5012200;28;47430;-85
2021/12/01 02:59:20;;;;;;;;;9.00;8.25;;;;;;;;5013284;28;45507;-83
2021/12/01 03:01:45;;;;;;;;;10.75;9.00;;;;;;;;5028740;28;45598;-85
2021/12/01 03:04:12;;;;;;;;;9.00;8.67;;;;;;;;5028884;28;45626;-84
2021/12/01 03:06:39;;;;;;;;;7.50;6.75;;;;;;;;5027550;28;48174;-85
2021/12/01 03:09:05;;;;;;;;;8.50;7.75;;;;;;;;5029108;28;45757;-84
2021/12/01 03:11:31;;;;;;;;;6.00;6.00;;;;;;;;5028859;28;45566;-85
2021/12/01 03:13:56;;;;;;;;;5.75;5.75;;;;;;;;5029017;28;45486;-84
2021/12/01 03:16:21;;;;;;;;;7.33;7.00;;;;;;;;5028975;28;47112;-85
2021/12/01 03:18:47;;;;;;;;;7.75;7.75;;;;;;;;5027962;28;45528;-84
2021/12/01 03:21:13;;;;;;;;;7.25;7.00;;;;;;;;5028465;28;45450;-85
2021/12/01 03:23:38;;;;;;;;;6.33;5.67;;;;;;;;5030088;28;45390;-85
2021/12/01 03:26:04;;;;;;;;;7.25;7.00;;;;;;;;5028611;28;48293;-84
2021/12/01 03:28:29;;;;;;;;;7.00;7.00;;;;;;;;5028184;28;45434;-84
2021/12/01 03:30:54;;;;;;;;;6.00;6.00;;;;;;;;5029283;28;45469;-85
2021/12/01 03:33:20;;;;;;;;;7.00;7.00;;;;;;;;5028755;28;45514;-85
2021/12/01 03:35:47;;;;;;;;;5.00;4.50;;;;;;;;5028890;28;45500;-84
2021/12/01 03:38:13;;;;;;;;;9.50;9.00;;;;;;;;5030122;28;45435;-86
2021/12/01 03:40:38;;;;;;;;;8.00;8.00;;;;;;;;5028711;28;45557;-85
2021/12/01 03:43:03;;;;;;;;;9.75;9.00;;;;;;;;5029744;28;45506;-85
2021/12/01 03:45:29;;;;;;;;;9.00;9.00;;;;;;;;5030007;28;45809;-85
2021/12/01 03:47:54;;;;;;;;;5.25;5.25;;;;;;;;5027446;28;46116;-87
2021/12/01 03:50:19;;;;;;;;;8.50;7.75;;;;;;;;5027930;28;45959;-84
2021/12/01 03:52:45;;;;;;;;;7.00;7.00;;;;;;;;5028608;28;45681;-86
2021/12/01 03:55:10;;;;;;;;;9.33;9.00;;;;;;;;5029086;28;47154;-85
2021/12/01 03:57:35;;;;;;;;;8.00;8.00;;;;;;;;5029030;28;45504;-85
2021/12/01 04:00:03;;;;;;;;;10.00;10.00;;;;;;;;5043843;28;45625;-85
2021/12/01 04:02:29;;;;;;;;;11.25;8.75;;;;;;;;5031494;28;45748;-86
2021/12/01 04:04:54;;;;;;;;;8.67;7.67;;;;;;;;5049120;28;45569;-86
2021/12/01 04:07:19;;;;;;;;;7.33;7.00;;;;;;;;5031063;28;45416;-86
2021/12/01 04:09:45;;;;;;;;;8.75;8.25;;;;;;;;5049943;28;45439;-85
2021/12/01 04:12:11;;;;;;;;;10.00;9.00;;;;;;;;5049936;28;45753;-85
2021/12/01 04:14:36;;;;;;;;;9.00;9.00;;;;;;;;5033275;28;47377;-86
2021/12/01 04:17:02;;;;;;;;;8.00;8.00;;;;;;;;5031777;28;45504;-86
2021/12/01 04:19:27;;;;;;;;;9.00;9.00;;;;;;;;5030471;28;45684;-85
2021/12/01 04:21:52;;;;;;;;;8.00;8.00;;;;;;;;5030912;28;45561;-86
2021/12/01 04:24:19;;;;;;;;;8.25;7.50;;;;;;;;5031361;28;48061;-86
2021/12/01 04:26:45;;;;;;;;;9.50;8.75;;;;;;;;5049401;28;45815;-85
2021/12/01 04:29:10;;;;;;;;;10.50;8.50;;;;;;;;5031523;28;45396;-86
2021/12/01 04:31:36;;;;;;;;;8.50;6.75;;;;;;;;5049406;28;45395;-85
2021/12/01 04:34:02;;;;;;;;;5.25;5.00;;;;;;;;5030852;28;47992;-85
2021/12/01 04:36:36;;;;;;;;;5.00;4.00;;;;;;;;5030960;28;45238;-86
2021/12/01 04:39:04;;;;;;;;;4.50;3.25;;;;;;;;5031218;28;45796;-86
2021/12/01 04:41:36;;;;;;;;;3.50;3.00;;;;;;;;5030698;28;45467;-86
2021/12/01 04:44:02;;;;;;;;;5.00;3.00;;;;;;;;5049288;28;46328;-86
2021/12/01 04:46:27;;;;;;;;;3.00;3.00;;;;;;;;5030761;28;45578;-85
2021/12/01 04:48:52;;;;;;;;;2.67;2.67;;;;;;;;5048334;28;45494;-85
2021/12/01 04:51:17;;;;;;;;;2.67;2.00;;;;;;;;5031160;28;45459;-86
2021/12/01 04:53:43;;;;;;;;;2.00;2.00;;;;;;;;5048910;28;45837;-86
2021/12/01 04:56:09;;;;;;;;;1.25;1.00;;;;;;;;5049735;28;45494;-85
2021/12/01 04:58:34;;;;;;;;;1.75;1.75;;;;;;;;5029885;28;45501;-86
2021/12/01 05:01:01;;;;;;;;;1.00;1.00;;;;;;;;5051044;28;45400;-85
2021/12/01 05:03:26;;;;;;;;;2.00;1.00;;;;;;;;5033991;28;47446;-85
2021/12/01 05:05:52;;;;;;;;;1.00;1.00;;;;;;;;5033704;28;45851;-86
2021/12/01 05:08:18;;;;;;;;;1.00;1.00;;;;;;;;5053281;28;45882;-85
2021/12/01 05:10:43;;;;;;;;;1.00;1.00;;;;;;;;5035237;28;45377;-85
2021/12/01 05:13:08;;;;;;;;;1.00;1.00;;;;;;;;5052683;28;46463;-85
2021/12/01 05:15:33;;;;;;;;;1.00;1.00;;;;;;;;5052350;28;45441;-86
2021/12/01 05:17:59;;;;;;;;;1.67;1.67;;;;;;;;5052377;28;46107;-85
2021/12/01 05:20:24;;;;;;;;;1.00;1.00;;;;;;;;5033909;28;45957;-86
2021/12/01 05:22:49;;;;;;;;;1.00;1.00;;;;;;;;5033520;28;47194;-85
2021/12/01 05:25:14;;;;;;;;;0.00;0.00;;;;;;;;5051741;28;45601;-84
2021/12/01 05:27:39;;;;;;;;;0.33;0.33;;;;;;;;5034051;28;45498;-85
2021/12/01 05:30:05;;;;;;;;;0.00;0.00;;;;;;;;5034124;28;45823;-84
2021/12/01 05:32:31;;;;;;;;;0.50;0.00;;;;;;;;5032947;28;47151;-84
2021/12/01 05:34:57;;;;;;;;;0.00;0.00;;;;;;;;5033057;28;45504;-84
2021/12/01 05:37:22;;;;;;;;;0.00;0.00;;;;;;;;5034943;28;45631;-84
2021/12/01 05:39:47;;;;;;;;;0.33;0.33;;;;;;;;5033221;28;45535;-84
2021/12/01 05:42:13;;;;;;;;;0.67;0.67;;;;;;;;5075404;22;47991;-84
2021/12/01 05:44:38;;;;;;;;;0.00;0.00;;;;;;;;5051398;28;45439;-85
2021/12/01 05:47:04;;;;;;;;;0.00;0.00;;;;;;;;5034183;28;45513;-85
2021/12/01 05:49:29;;;;;;;;;0.00;0.00;;;;;;;;5033476;28;45786;-86
2021/12/01 05:51:54;;;;;;;;;0.00;0.00;;;;;;;;5032197;28;47408;-86
2021/12/01 05:54:20;;;;;;;;;0.33;0.33;;;;;;;;5051958;28;45484;-86
2021/12/01 05:56:45;;;;;;;;;1.00;1.00;;;;;;;;5033954;28;45852;-85
2021/12/01 05:59:10;;;;;;;;;1.00;0.33;;;;;;;;5031119;28;45481;-86
2021/12/01 06:01:35;;;;;;;;;1.00;1.00;;;;;;;;5035531;28;45944;-85
2021/12/01 06:04:01;;;;;;;;;2.00;1.00;;;;;;;;5052094;28;45393;-86
2021/12/01 06:06:27;;;;;;;;;1.00;0.75;;;;;;;;5050869;28;45250;-85
2021/12/01 06:08:52;;;;;;;;;1.00;1.00;;;;;;;;5039826;28;45431;-86
2021/12/01 06:11:19;;;;;;;;;1.00;1.00;;;;;;;;5064256;28;45490;-85
2021/12/01 06:13:45;;;;;;;;;1.00;0.00;;;;;;;;5069549;28;45401;-86
2021/12/01 06:16:10;;;;;;;;;0.50;0.50;;;;;;;;5047560;28;45244;-85
2021/12/01 06:18:35;;;;;;;;;1.00;1.00;;;;;;;;5045494;28;45454;-86
2021/12/01 06:21:04;;;;;;;;;1.00;1.00;;;;;;;;5045313;28;47023;-86
2021/12/01 06:23:29;;;;;;;;;1.00;1.00;;;;;;;;5047799;28;45612;-86
2021/12/01 06:25:54;;;;;;;;;0.50;0.50;;;;;;;;5046615;28;45160;-85
2021/12/01 06:28:20;;;;;;;;;0.00;0.00;;;;;;;;5069491;28;45374;-85
2021/12/01 06:30:45;;;;;;;;;0.33;0.33;;;;;;;;5046007;28;47087;-86
2021/12/01 06:33:11;;;;;;;;;0.33;0.33;;;;;;;;5039214;28;45481;-86
2021/12/01 06:35:36;;;;;;;;;1.00;1.00;;;;;;;;5062844;28;45477;-85
2021/12/01 06:38:02;;;;;;;;;1.00;1.00;;;;;;;;5058363;28;45543;-85
2021/12/01 06:40:28;;;;;;;;;0.00;0.00;;;;;;;;5042628;28;47081;-86
2021/12/01 06:42:53;;;;;;;;;1.00;0.00;;;;;;;;5037372;28;45781;-85
2021/12/01 06:45:19;;;;;;;;;1.00;1.00;;;;;;;;5043544;28;45326;-85
2021/12/01 06:47:45;;;;;;;;;0.00;0.00;;;;;;;;5050128;28;45563;-85
2021/12/01 06:50:10;;;;;;;;;1.00;1.00;;;;;;;;5047027;28;47000;-85
2021/12/01 06:52:38;;;;;;;;;1.00;1.00;;;;;;;;5050921;28;45008;-84
2021/12/01 06:55:04;;;;;;;;;0.75;0.00;;;;;;;;5050864;28;45061;-85
2021/12/01 06:57:29;;;;;;;;;1.00;1.00;;;;;;;;5046941;28;45297;-85
2021/12/01 06:59:54;;;;;;;;;0.00;0.00;;;;;;;;5046698;28;47046;-86
2021/12/01 07:02:19;;;;;;;;;1.00;0.33;;;;;;;;5057236;28;45364;-85
2021/12/01 07:04:45;;;;;;;;;0.00;0.00;;;;;;;;5040893;28;45426;-85
2021/12/01 07:07:10;;;;;;;;;1.00;0.00;;;;;;;;5040230;28;45487;-85
2021/12/01 07:09:36;;;;;;;;;0.75;0.00;;;;;;;;5033203;28;47081;-85
2021/12/01 07:12:01;;;;;;;;;0.33;0.00;;;;;;;;5031700;28;45562;-86
2021/12/01 07:14:27;;;;;;;;;0.33;0.00;;;;;;;;5031704;28;45815;-86
2021/12/01 07:16:52;;;;;;;;;0.00;0.00;;;;;;;;5034008;28;45467;-85
2021/12/01 07:19:17;;;;;;;;;0.00;0.00;;;;;;;;5022947;28;46927;-84
2021/12/01 07:21:43;;;;;;;;;0.33;0.00;;;;;;;;5031404;28;45729;-85
2021/12/01 07:24:08;;;;;;;;;0.00;0.00;;;;;;;;5028744;28;45606;-85
2021/12/01 07:26:33;;;;;;;;;0.00;0.00;;;;;;;;5038230;28;45443;-85
2021/12/01 07:28:59;;;;;;;;;0.00;0.00;;;;;;;;5045566;28;46888;-85
2021/12/01 07:31:24;;;;;;;;;0.00;0.00;;;;;;;;5059206;28;45407;-85
2021/12/01 07:33:49;;;;;;;;;1.00;1.00;;;;;;;;5044086;28;45278;-84
2021/12/01 07:36:15;;;;;;;;;2.00;1.33;;;;;;;;5046533;28;45121;-85
2021/12/01 07:38:41;;;;;;;;;0.00;0.00;;;;;;;;5046050;28;48069;-84
2021/12/01 07:41:06;;;;;;;;;0.00;0.00;;;;;;;;5068458;28;45163;-84
2021/12/01 07:43:31;;;;;;;;;0.00;0.00;;;;;;;;5063998;28;45361;-85
2021/12/01 07:45:57;;;;;;;;;1.67;1.67;;;;;;;;5060308;28;45340;-85
2021/12/01 07:48:22;;;;;;;;;1.00;1.00;;;;;;;;5059104;28;47843;-84
2021/12/01 07:50:47;;;;;;;;;3.00;2.00;;;;;;;;5052963;28;45367;-86
2021/12/01 07:56:15;;;;;;;;;3.00;3.00;;;;;;;;5050655;22;45293;-85
2021/12/01 07:58:41;;;;;;;;;2.33;2.33;;;;;;;;5014121;28;47176;-91
2021/12/01 08:01:06;;;;;;;;;1.00;1.00;;;;;;;;5013172;28;45535;-89
2021/12/01 08:03:31;;;;;;;;;0.67;0.67;;;;;;;;5017580;28;44891;-90
2021/12/01 08:09:00;;;;;;;;;0.00;0.00;;;;;;;;5040720;28;45550;-90
2021/12/01 08:11:27;;;;;;;;;0.00;0.00;;;;;;;;5019090;28;45385;-92
2021/12/01 08:13:55;;;;;;;;;0.25;0.25;;;;;;;;5014318;28;45385;-91
2021/12/01 08:16:23;;;;;;;;;0.00;0.00;;;;;;;;5019347;28;45518;-90
2021/12/01 08:18:54;;;;;;;;;0.00;0.00;;;;;;;;5016521;28;48147;-84
2021/12/01 08:21:19;;;;;;;;;1.00;1.00;;;;;;;;5015593;28;45882;-85
2021/12/01 08:23:44;;;;;;;;;0.25;0.25;;;;;;;;5035326;28;45323;-85
2021/12/01 08:26:09;;;;;;;;;0.67;0.67;;;;;;;;5017361;28;45558;-86
2021/12/01 08:28:35;;;;;;;;;0.33;0.33;;;;;;;;5024565;28;47316;-86
2021/12/01 08:31:00;;;;;;;;;1.00;1.00;;;;;;;;5044411;28;45246;-86
2021/12/01 08:33:25;;;;;;;;;0.00;0.00;;;;;;;;5021619;28;46182;-85
2021/12/01 08:35:51;;;;;;;;;1.00;1.00;;;;;;;;5035327;28;45487;-86
2021/12/01 08:38:16;;;;;;;;;0.75;0.75;;;;;;;;5015678;28;47363;-87
2021/12/01 08:40:41;;;;;;;;;0.00;0.00;;;;;;;;5035516;28;45599;-86
2021/12/01 08:43:07;;;;;;;;;1.00;1.00;;;;;;;;5038287;28;45342;-83
2021/12/01 08:45:33;;;;;;;;;1.00;0.25;;;;;;;;5026901;28;45124;-86
2021/12/01 08:47:58;;;;;;;;;0.75;0.75;;;;;;;;5035770;28;46107;-87
2021/12/01 08:50:23;;;;;;;;;0.00;0.00;;;;;;;;5038454;28;45163;-87
2021/12/01 08:52:48;;;;;;;;;1.33;1.33;;;;;;;;5021199;28;45420;-86
2021/12/01 08:55:14;;;;;;;;;4.00;4.00;;;;;;;;5018089;28;45476;-87
2021/12/01 08:57:39;;;;;;;;;1.00;1.00;;;;;;;;5036232;28;47883;-87
2021/12/01 09:00:05;;;;;;;;;2.00;1.33;;;;;;;;5013964;28;45361;-85
2021/12/01 09:02:30;;;;;;;;;1.00;1.00;;;;;;;;5014349;28;45684;-86
2021/12/01 09:04:55;;;;;;;;;3.25;2.00;;;;;;;;5013304;28;45513;-86
2021/12/01 09:07:21;;;;;;;;;3.33;3.33;;;;;;;;5028530;28;46402;-85
2021/12/01 09:09:46;;;;;;;;;9.67;8.00;;;;;;;;5027785;28;45345;-86
2021/12/01 09:12:13;;;;;;;;;7.25;5.75;;;;;;;;5006840;28;45496;-86
2021/12/01 09:14:38;;;;;;;;;10.00;9.50;;;;;;;;5001206;28;45492;-85
2021/12/01 09:17:04;;;;;;;;;3.00;2.25;;;;;;;;5020317;28;47208;-86
2021/12/01 09:19:29;;;;;;;;;1.00;1.00;;;;;;;;5010535;28;45442;-84
2021/12/01 09:21:54;;;;;;;;;1.67;1.00;;;;;;;;4997918;28;45741;-84
2021/12/01 09:24:21;;;;;;;;;0.50;0.50;;;;;;;;5007183;28;45390;-85
2021/12/01 09:26:46;;;;;;;;;0.25;0.25;;;;;;;;5014419;28;48263;-83
2021/12/01 09:29:12;;;;;;;;;1.75;1.00;;;;;;;;5022383;28;45215;-84
2021/12/01 09:31:37;;;;;;;;;4.67;4.67;;;;;;;;5039015;28;45533;-84
2021/12/01 09:34:02;;;;;;;;;1.00;1.00;;;;;;;;5020734;28;45332;-84
2021/12/01 09:36:29;;;;;;;;;2.25;1.00;;;;;;;;5019578;28;47680;-84
2021/12/01 09:38:54;;;;;;;;;2.25;1.50;;;;;;;;5014709;28;45488;-84
2021/12/01 09:41:20;;;;;;;;;1.00;0.00;;;;;;;;5015818;28;45486;-84
2021/12/01 09:43:45;;;;;;;;;1.50;0.00;;;;;;;;5030781;28;45456;-83
2021/12/01 09:46:10;;;;;;;;;1.00;0.00;;;;;;;;5014637;28;47503;-85
2021/12/01 09:48:37;;;;;;;;;0.00;0.00;;;;;;;;5010370;28;45927;-85
2021/12/01 09:51:03;;;;;;;;;0.00;0.00;;;;;;;;5027906;28;45368;-84
2021/12/01 09:53:28;;;;;;;;;1.75;1.00;;;;;;;;5020078;28;45484;-84
2021/12/01 09:55:53;;;;;;;;;2.00;1.00;;;;;;;;5019286;28;48087;-85
2021/12/01 09:58:20;;;;;;;;;1.67;1.33;;;;;;;;5028592;28;45188;-84
2021/12/01 10:00:50;;;;;;;;;0.00;0.00;;;;;;;;5025522;28;45437;-85
2021/12/01 10:03:16;;;;;;;;;1.50;1.25;;;;;;;;5021796;28;45543;-84
2021/12/01 10:06:03;;;;;;;;;1.00;0.00;;;;;;;;5030331;28;46985;-85
2021/12/01 10:08:31;;;;;;;;;2.25;1.00;;;;;;;;5021946;28;45702;-85
2021/12/01 10:10:57;;;;;;;;;0.00;0.00;;;;;;;;5030888;28;45124;-85
2021/12/01 10:13:27;;;;;;;;;1.00;0.75;;;;;;;;5027111;28;45597;-85
2021/12/01 10:15:53;;;;;;;;;1.00;0.75;;;;;;;;5030625;28;46833;-87
2021/12/01 10:18:19;;;;;;;;;1.00;1.00;;;;;;;;5014847;28;45406;-85
2021/12/01 10:20:56;;;;;;;;;0.67;0.00;;;;;;;;5011990;28;45393;-87
2021/12/01 10:23:21;;;;;;;;;0.00;0.00;;;;;;;;5029401;28;45369;-86
2021/12/01 10:25:47;;;;;;;;;0.00;0.00;;;;;;;;5028963;28;45982;-85
2021/12/01 10:28:31;;;;;;;;;0.00;0.00;;;;;;;;5010810;28;45287;-84
2021/12/01 10:30:56;;;;;;;;;0.00;0.00;;;;;;;;5030399;28;45057;-85
2021/12/01 10:33:21;;;;;;;;;0.00;0.00;;;;;;;;5012667;28;45370;-87
2021/12/01 10:35:46;;;;;;;;;0.00;0.00;;;;;;;;5029094;28;46070;-84
2021/12/01 10:38:13;;;;;;;;;1.00;0.00;;;;;;;;5028401;28;45061;-84
2021/12/01 10:40:39;;;;;;;;;0.50;0.00;;;;;;;;4996789;28;45334;-84
2021/12/01 10:43:05;;;;;;;;;0.00;0.00;;;;;;;;4992990;28;45568;-84
2021/12/01 10:45:33;;;;;;;;;0.00;0.00;;;;;;;;5033929;28;45656;-84
2021/12/01 10:47:59;;;;;;;;;1.25;0.00;;;;;;;;5016524;28;45697;-84
2021/12/01 10:50:25;;;;;;;;;1.50;1.00;;;;;;;;5010881;28;45520;-84
2021/12/01 10:52:52;;;;;;;;;1.00;0.00;;;;;;;;5010348;28;45511;-84
2021/12/01 10:55:19;;;;;;;;;0.00;0.00;;;;;;;;5010846;28;45478;-84
2021/12/01 10:57:51;;;;;;;;;1.00;1.00;;;;;;;;5010567;28;45342;-85
2021/12/01 11:00:22;;;;;;;;;2.75;2.00;;;;;;;;5011167;28;45457;-85
2021/12/01 11:02:48;;;;;;;;;1.00;1.00;;;;;;;;5010523;28;45653;-84
2021/12/01 11:05:24;;;;;;;;;1.00;1.00;;;;;;;;4991952;28;48156;-85
2021/12/01 11:07:49;;;;;;;;;0.75;0.75;;;;;;;;5022520;28;45709;-85
2021/12/01 11:10:19;;;;;;;;;1.33;0.00;;;;;;;;5011774;28;45119;-85
2021/12/01 11:13:01;;;;;;;;;1.00;1.00;;;;;;;;5034415;28;45009;-85
2021/12/01 11:15:27;;;;;;;;;0.50;0.50;;;;;;;;5067702;28;45383;-86
2021/12/01 11:17:54;;;;;;;;;1.00;1.00;;;;;;;;5051433;28;45986;-85
2021/12/01 11:20:33;;;;;;;;;3.25;2.00;;;;;;;;5050920;28;45209;-86
2021/12/01 11:23:13;;;;;;;;;1.00;1.00;;;;;;;;5036414;28;45173;-85
2021/12/01 11:25:39;;;;;;;;;1.75;1.50;;;;;;;;5029936;28;47080;-84
2021/12/01 11:28:05;;;;;;;;;1.00;1.00;;;;;;;;5022225;28;45584;-84
2021/12/01 11:30:30;;;;;;;;;2.50;2.00;;;;;;;;5030426;28;45685;-83
2021/12/01 11:32:55;;;;;;;;;1.00;1.00;;;;;;;;5012020;28;45658;-84
2021/12/01 11:35:21;;;;;;;;;2.00;1.00;;;;;;;;5030543;28;45468;-84
2021/12/01 11:37:48;;;;;;;;;2.00;1.25;;;;;;;;5029950;28;45535;-83
2021/12/01 11:40:13;;;;;;;;;1.00;1.00;;;;;;;;5012982;28;45521;-84
2021/12/01 11:42:38;;;;;;;;;2.00;2.00;;;;;;;;5012155;28;45795;-84
2021/12/01 11:45:04;;;;;;;;;1.67;1.67;;;;;;;;5012767;28;47226;-84
2021/12/01 11:47:30;;;;;;;;;1.00;1.00;;;;;;;;5012045;28;46044;-84
2021/12/01 11:49:57;;;;;;;;;1.25;1.25;;;;;;;;5012525;28;45515;-86
2021/12/01 11:52:32;;;;;;;;;1.00;0.00;;;;;;;;5012923;28;45559;-85
2021/12/01 11:54:58;;;;;;;;;1.25;1.00;;;;;;;;5017246;28;45558;-84
2021/12/01 11:57:23;;;;;;;;;1.00;1.00;;;;;;;;5010494;28;45394;-85
2021/12/01 11:59:48;;;;;;;;;1.33;1.00;;;;;;;;5010253;28;45614;-84
2021/12/01 12:02:21;;;;;;;;;0.00;0.00;;;;;;;;4992475;28;45681;-85
2021/12/01 12:04:47;;;;;;;;;2.00;0.25;;;;;;;;4991442;28;48447;-84
2021/12/01 12:07:14;;;;;;;;;0.00;0.00;;;;;;;;5021818;28;45392;-85
2021/12/01 12:09:40;;;;;;;;;0.75;0.75;;;;;;;;5009740;28;45394;-84
2021/12/01 12:12:10;;;;;;;;;1.00;1.00;;;;;;;;4992206;28;45375;-85
2021/12/01 12:14:36;;;;;;;;;1.00;0.00;;;;;;;;4991675;28;46935;-83
2021/12/01 12:17:01;;;;;;;;;1.00;1.00;;;;;;;;4995240;28;46275;-88
2021/12/01 12:19:44;;;;;;;;;3.00;3.00;;;;;;;;5030600;28;45735;-84
2021/12/01 12:22:11;;;;;;;;;1.00;1.00;;;;;;;;5010875;28;45543;-84
2021/12/01 12:24:45;;;;;;;;;1.00;1.00;;;;;;;;5024748;28;46228;-86
2021/12/01 12:27:29;;;;;;;;;0.25;0.25;;;;;;;;5027578;28;45645;-86
2021/12/01 12:29:57;;;;;;;;;0.00;0.00;;;;;;;;5011917;28;45457;-86
2021/12/01 12:32:24;;;;;;;;;1.00;0.25;;;;;;;;5030146;28;45322;-85
2021/12/01 12:34:50;;;;;;;;;0.50;0.50;;;;;;;;5047662;28;45710;-86
2021/12/01 12:37:25;;;;;;;;;0.00;0.00;;;;;;;;5029774;28;45429;-85
2021/12/01 12:39:55;;;;;;;;;0.00;0.00;;;;;;;;5048867;28;45023;-84
2021/12/01 12:42:22;;;;;;;;;1.00;1.00;;;;;;;;5030037;28;44997;-86
2021/12/01 12:44:48;;;;;;;;;0.00;0.00;;;;;;;;5029399;28;47056;-85
2021/12/01 12:47:15;;;;;;;;;4.00;3.00;;;;;;;;5029772;28;45560;-85
2021/12/01 12:49:40;;;;;;;;;1.75;1.25;;;;;;;;5029084;28;45042;-84
2021/12/01 12:52:24;;;;;;;;;1.00;1.00;;;;;;;;5030217;28;45436;-86
2021/12/01 12:55:01;;;;;;;;;2.75;1.50;;;;;;;;5029255;28;47196;-85
2021/12/01 12:57:46;;;;;;;;;0.25;0.00;;;;;;;;5029198;28;45634;-86
2021/12/01 13:00:16;;;;;;;;;1.00;1.00;;;;;;;;5048302;28;45022;-87
2021/12/01 13:02:41;;;;;;;;;2.25;1.00;;;;;;;;5029639;28;44993;-86
2021/12/01 13:05:07;;;;;;;;;0.00;0.00;;;;;;;;5045019;28;45443;-86
2021/12/01 13:07:49;;;;;;;;;3.25;2.00;;;;;;;;5048101;28;45106;-87
2021/12/01 13:10:14;;;;;;;;;2.00;1.00;;;;;;;;5030178;28;45079;-85
2021/12/01 13:12:47;;;;;;;;;2.00;1.00;;;;;;;;5028730;28;45256;-86
2021/12/01 13:15:27;;;;;;;;;1.00;1.00;;;;;;;;5048157;28;45577;-86
2021/12/01 13:17:54;;;;;;;;;3.00;0.75;;;;;;;;5047765;28;45624;-85
2021/12/01 13:20:21;;;;;;;;;0.75;0.75;;;;;;;;5047033;28;45349;-85
2021/12/01 13:22:59;;;;;;;;;0.00;0.00;;;;;;;;5032704;28;45079;-86
2021/12/01 13:25:24;;;;;;;;;0.00;0.00;;;;;;;;5032872;28;47228;-85
2021/12/01 13:27:50;;;;;;;;;1.00;0.00;;;;;;;;5032381;28;45157;-86
2021/12/01 13:30:15;;;;;;;;;0.33;0.00;;;;;;;;5033216;28;45118;-85
2021/12/01 13:32:40;;;;;;;;;0.25;0.25;;;;;;;;5051203;28;45332;-85
2021/12/01 13:35:05;;;;;;;;;0.00;0.00;;;;;;;;5032101;28;47229;-84
2021/12/01 13:37:31;;;;;;;;;0.00;0.00;;;;;;;;5032074;28;45140;-85
2021/12/01 13:39:56;;;;;;;;;1.00;1.00;;;;;;;;5032891;28;45147;-86
2021/12/01 13:42:23;;;;;;;;;1.00;1.00;;;;;;;;5032495;28;45113;-84
2021/12/01 13:44:50;;;;;;;;;2.00;1.00;;;;;;;;5023667;28;46836;-85
2021/12/01 13:47:26;;;;;;;;;0.00;0.00;;;;;;;;5015672;28;45797;-85
2021/12/01 13:49:59;;;;;;;;;0.00;0.00;;;;;;;;5031687;28;45515;-85
2021/12/01 13:52:24;;;;;;;;;0.00;0.00;;;;;;;;5032128;28;45393;-85
2021/12/01 13:54:49;;;;;;;;;0.00;0.00;;;;;;;;5013166;28;48385;-84
2021/12/01 13:57:15;;;;;;;;;0.00;0.00;;;;;;;;5014214;28;46023;-84
2021/12/01 13:59:50;;;;;;;;;0.75;0.75;;;;;;;;5013655;28;45423;-85
2021/12/01 14:02:21;;;;;;;;;0.00;0.00;;;;;;;;5032027;28;45539;-84
2021/12/01 14:04:50;;;;;;;;;0.00;0.00;;;;;;;;5005173;28;47119;-84
2021/12/01 14:07:16;;;;;;;;;0.00;0.00;;;;;;;;5018634;28;45447;-84
2021/12/01 14:09:41;;;;;;;;;0.00;0.00;;;;;;;;5014432;28;45502;-84
2021/12/01 14:12:16;;;;;;;;;1.00;1.00;;;;;;;;4997247;28;46006;-84
2021/12/01 14:14:41;;;;;;;;;1.00;0.25;;;;;;;;4999078;28;48168;-85
2021/12/01 14:17:07;;;;;;;;;0.00;0.00;;;;;;;;5019563;28;45434;-84
2021/12/01 14:19:33;;;;;;;;;1.00;0.50;;;;;;;;4996517;28;45433;-85
2021/12/01 14:21:59;;;;;;;;;0.00;0.00;;;;;;;;5005588;28;46039;-85
2021/12/01 14:24:26;;;;;;;;;1.00;1.00;;;;;;;;5005740;28;47500;-85
2021/12/01 14:26:56;;;;;;;;;0.50;0.00;;;;;;;;5000060;28;45921;-85
2021/12/01 14:29:21;;;;;;;;;0.25;0.00;;;;;;;;4994538;28;45444;-87
2021/12/01 14:32:04;;;;;;;;;0.00;0.00;;;;;;;;4995970;28;45407;-85
2021/12/01 14:34:32;;;;;;;;;1.00;0.00;;;;;;;;4993369;28;47198;-85
2021/12/01 14:36:58;;;;;;;;;0.00;0.00;;;;;;;;4994327;28;45661;-87
2021/12/01 14:39:23;;;;;;;;;1.50;0.75;;;;;;;;5011974;28;45462;-88
2021/12/01 14:41:50;;;;;;;;;0.75;0.00;;;;;;;;4994132;28;45604;-85
2021/12/01 14:44:15;;;;;;;;;1.00;0.75;;;;;;;;4996122;28;47749;-87
2021/12/01 14:46:41;;;;;;;;;1.75;1.00;;;;;;;;5013881;28;45702;-85